Nafsika — C4TH2 — position and weather

sailwx.info

Track history (hours):
 
Tides and Currents Weather Stations Pressure Air Temp Water Temp Dewpoint Dewpoint Depression Visibility Wind Speed Wind Dir Waves Ship Positions

Nafsika

Last reported at 2017-Aug-23 11:25 UTC. Time now 2017-Sep-22 19:12 UTC.
Position N 34°38' E 033°02'.
Warning: this ship's position is 30 days out of date.

Length 11 m.

Type: Other ship. MMSI: 212983042.

Date/timePositionNaut miles runAvg speedWind from/ knotsBaromVisibWave heightAir tempDewpointWater temp
2017-Aug-23 11:25N 34°38' E 033°02'2 3.3
2017-Aug-23 10:55N 34°37' E 033°01'1 1.9
2017-Aug-23 10:25N 34°36' E 033°01'0 0.0
2017-Aug-23 09:43N 34°36' E 033°01'0 0.0
2017-Aug-23 09:28N 34°36' E 033°01'2 1.5
2017-Aug-23 07:45N 34°34' E 033°02'1 5.1
2017-Aug-23 07:30N 34°35' E 033°02'3 5.1
2017-Aug-23 07:00N 34°38' E 033°02'  
2017-Aug-20 11:57N 34°40' E 033°03'1 1.2
2017-Aug-20 11:30N 34°40' E 033°03'2 4.1
2017-Aug-20 10:54N 34°38' E 033°02'2 1.5
2017-Aug-20 09:28N 34°36' E 033°01'2 1.0
2017-Aug-20 07:33N 34°35' E 033°03'0 4.8
2017-Aug-20 07:30N 34°35' E 033°03'2 4.7
2017-Aug-20 07:00N 34°38' E 033°03'  
2017-Aug-17 12:00N 34°40' E 033°03'2 4.6
2017-Aug-17 11:28N 34°38' E 033°02'2 1.3
2017-Aug-17 09:43N 34°36' E 033°01'0 0.0
2017-Aug-17 09:27N 34°36' E 033°01'2 1.1
2017-Aug-17 07:46N 34°35' E 033°02'1 4.4
2017-Aug-17 07:30N 34°36' E 033°02'2 4.6
2017-Aug-17 07:00N 34°38' E 033°02'2 0.1
2017-Aug-16 11:55N 34°40' E 033°03'1 1.6
2017-Aug-16 11:30N 34°40' E 033°03'2 4.2
2017-Aug-16 11:00N 34°38' E 033°03'3 3.8
2017-Aug-16 10:17N 34°36' E 033°01'0 0.0
2017-Aug-16 09:59N 34°36' E 033°01'2 0.7
2017-Aug-16 07:31N 34°35' E 033°02'0 4.9
2017-Aug-16 07:26N 34°36' E 033°02'2 5.1
2017-Aug-16 06:59N 34°38' E 033°02'2 0.1
2017-Aug-14 14:28N 34°40' E 033°03'2 4.5
2017-Aug-14 14:00N 34°38' E 033°01'1 1.2
2017-Aug-14 13:29N 34°38' E 033°01'0 0.4
2017-Aug-14 13:00N 34°38' E 033°01'3 2.4
2017-Aug-14 11:59N 34°40' E 033°03'1 1.8
2017-Aug-14 11:30N 34°39' E 033°03'2 4.6
2017-Aug-14 11:00N 34°37' E 033°02'2 0.7
2017-Aug-14 07:43N 34°35' E 033°02'1 4.7
2017-Aug-14 07:30N 34°36' E 033°02'3 4.8
2017-Aug-14 06:59N 34°39' E 033°02'2 0.1
2017-Aug-13 13:02N 34°40' E 033°03'0 2.0
2017-Aug-13 13:00N 34°40' E 033°03'2 2.3
2017-Aug-13 12:06N 34°38' E 033°02'0 1.1
2017-Aug-13 12:00N 34°38' E 033°02'1 2.0
2017-Aug-13 11:30N 34°39' E 033°02'  
Track history (hours):
 
Tides and Currents Weather Stations Pressure Air Temp Water Temp Dewpoint Dewpoint Depression Visibility Wind Speed Wind Dir Waves Ship Positions

Nafsika

Last reported at 2017-Aug-23 11:25 UTC. Time now 2017-Sep-22 19:12 UTC.
Position N 34°38' E 033°02'.
Warning: this ship's position is 30 days out of date.

Length 11 m.

Type: Other ship. MMSI: 212983042.

Date/timePositionNaut miles runAvg speedWind from/ knotsBaromVisibWave heightAir tempDewpointWater temp
2017-Aug-23 11:25N 34°38' E 033°02'2 3.3
2017-Aug-23 10:55N 34°37' E 033°01'1 1.9
2017-Aug-23 10:25N 34°36' E 033°01'0 0.0
2017-Aug-23 09:43N 34°36' E 033°01'0 0.0
2017-Aug-23 09:28N 34°36' E 033°01'2 1.5
2017-Aug-23 07:45N 34°34' E 033°02'1 5.1
2017-Aug-23 07:30N 34°35' E 033°02'3 5.1
2017-Aug-23 07:00N 34°38' E 033°02'  
2017-Aug-20 11:57N 34°40' E 033°03'1 1.2
2017-Aug-20 11:30N 34°40' E 033°03'2 4.1
2017-Aug-20 10:54N 34°38' E 033°02'2 1.5
2017-Aug-20 09:28N 34°36' E 033°01'2 1.0
2017-Aug-20 07:33N 34°35' E 033°03'0 4.8
2017-Aug-20 07:30N 34°35' E 033°03'2 4.7
2017-Aug-20 07:00N 34°38' E 033°03'  
2017-Aug-17 12:00N 34°40' E 033°03'2 4.6
2017-Aug-17 11:28N 34°38' E 033°02'2 1.3
2017-Aug-17 09:43N 34°36' E 033°01'0 0.0
2017-Aug-17 09:27N 34°36' E 033°01'2 1.1
2017-Aug-17 07:46N 34°35' E 033°02'1 4.4
2017-Aug-17 07:30N 34°36' E 033°02'2 4.6
2017-Aug-17 07:00N 34°38' E 033°02'2 0.1
2017-Aug-16 11:55N 34°40' E 033°03'1 1.6
2017-Aug-16 11:30N 34°40' E 033°03'2 4.2
2017-Aug-16 11:00N 34°38' E 033°03'3 3.8
2017-Aug-16 10:17N 34°36' E 033°01'0 0.0
2017-Aug-16 09:59N 34°36' E 033°01'2 0.7
2017-Aug-16 07:31N 34°35' E 033°02'0 4.9
2017-Aug-16 07:26N 34°36' E 033°02'2 5.1
2017-Aug-16 06:59N 34°38' E 033°02'2 0.1
2017-Aug-14 14:28N 34°40' E 033°03'2 4.5
2017-Aug-14 14:00N 34°38' E 033°01'1 1.2
2017-Aug-14 13:29N 34°38' E 033°01'0 0.4
2017-Aug-14 13:00N 34°38' E 033°01'3 2.4
2017-Aug-14 11:59N 34°40' E 033°03'1 1.8
2017-Aug-14 11:30N 34°39' E 033°03'2 4.6
2017-Aug-14 11:00N 34°37' E 033°02'2 0.7
2017-Aug-14 07:43N 34°35' E 033°02'1 4.7
2017-Aug-14 07:30N 34°36' E 033°02'3 4.8
2017-Aug-14 06:59N 34°39' E 033°02'2 0.1
2017-Aug-13 13:02N 34°40' E 033°03'0 2.0
2017-Aug-13 13:00N 34°40' E 033°03'2 2.3
2017-Aug-13 12:06N 34°38' E 033°02'0 1.1
2017-Aug-13 12:00N 34°38' E 033°02'1 2.0
2017-Aug-13 11:30N 34°39' E 033°02'  

Dump ship's entire track history